createdAt,value
2022-09-03T00:01:40.099Z,98785.16
2022-09-03T00:04:25.940Z,98786.97
2022-09-03T00:07:02.767Z,98781.19
2022-09-03T00:09:42.728Z,98771.53
2022-09-03T00:12:29.822Z,98767.69
2022-09-03T00:15:05.716Z,98759.03
2022-09-03T00:17:37.613Z,98755.88
2022-09-03T00:20:11.297Z,98751.38
2022-09-03T00:22:41.659Z,98752.41
2022-09-03T00:25:14.525Z,98751.03
2022-09-03T00:27:43.589Z,98752.22
2022-09-03T00:30:14.613Z,98744.25
2022-09-03T00:33:06.884Z,98742.94
2022-09-03T00:35:40.933Z,98739.44
2022-09-03T00:38:08.622Z,98738.75
2022-09-03T00:40:55.037Z,98738.09
2022-09-03T00:43:41.017Z,98744.72
2022-09-03T00:46:26.679Z,98736.09
2022-09-03T00:49:11.703Z,98733.44
2022-09-03T00:51:50.200Z,98735.38
2022-09-03T00:54:30.283Z,98739.75
2022-09-03T00:57:12.141Z,98724.78
2022-09-03T00:59:44.444Z,98730.63
2022-09-03T01:02:29.116Z,98743.72
2022-09-03T01:05:26.842Z,98739.75
2022-09-03T01:08:14.776Z,98729.75
2022-09-03T01:11:04.264Z,98731.22
2022-09-03T01:13:36.355Z,98725.38
2022-09-03T01:16:08.788Z,98717.72
2022-09-03T01:18:44.884Z,98709.56
2022-09-03T01:21:34.826Z,98714.38
2022-09-03T01:24:29.206Z,98709.69
2022-09-03T01:27:05.781Z,98711.00
2022-09-03T01:29:43.373Z,98698.00
2022-09-03T01:32:39.078Z,98690.50
2022-09-03T01:35:43.822Z,98692.31
2022-09-03T01:43:45.532Z,98675.00
2022-09-03T01:46:21.874Z,98654.69
2022-09-03T01:48:51.286Z,98674.63
2022-09-03T01:51:23.911Z,98659.78
2022-09-03T01:54:10.932Z,98653.84
2022-09-03T01:56:50.608Z,98653.34
2022-09-03T01:59:33.313Z,98644.72
2022-09-03T02:02:08.227Z,98653.53
2022-09-03T02:04:34.839Z,98641.78
2022-09-03T02:07:02.847Z,98663.72
2022-09-03T02:09:32.596Z,98665.38
2022-09-03T02:12:08.698Z,98666.00
2022-09-03T02:14:36.091Z,98676.00
2022-09-03T02:17:05.153Z,98673.66
2022-09-03T02:19:32.784Z,98665.69
2022-09-03T02:21:59.217Z,98668.03
2022-09-03T02:24:26.324Z,98679.19
2022-09-03T02:26:53.350Z,98671.03
2022-09-03T02:29:20.291Z,98674.31
2022-09-03T02:31:46.709Z,98667.78
2022-09-03T02:34:13.400Z,98655.00
2022-09-03T02:36:47.218Z,98646.28
2022-09-03T02:39:15.902Z,98637.16
2022-09-03T02:41:42.431Z,98632.50
2022-09-03T02:44:23.970Z,98620.22
2022-09-03T02:46:57.006Z,98609.06
2022-09-03T02:49:23.434Z,98604.56
2022-09-03T02:51:49.836Z,98600.84
2022-09-03T02:54:20.767Z,98594.75
2022-09-03T02:56:49.925Z,98581.06
2022-09-03T02:59:17.915Z,98570.47
2022-09-03T03:01:46.701Z,98546.88
2022-09-03T03:04:17.686Z,98539.41
2022-09-03T03:06:47.608Z,98528.13
2022-09-03T03:09:16.181Z,98524.75
2022-09-03T03:11:42.980Z,98513.44
2022-09-03T03:14:09.583Z,98509.13
2022-09-03T03:16:39.200Z,98498.25
2022-09-03T03:19:08.343Z,98463.22
2022-09-03T03:21:34.999Z,98479.75
2022-09-03T03:24:02.857Z,98482.81
2022-09-03T03:26:29.312Z,98470.59
2022-09-03T03:28:58.381Z,98474.19
2022-09-03T03:31:25.566Z,98491.88
2022-09-03T03:33:56.881Z,98486.16
2022-09-03T03:36:25.252Z,98477.56
2022-09-03T03:38:54.687Z,98486.75
2022-09-03T03:41:24.134Z,98486.75
2022-09-03T03:43:55.291Z,98493.28
2022-09-03T03:46:23.305Z,98482.59
2022-09-03T03:48:50.896Z,98482.56
2022-09-03T03:51:18.228Z,98470.50
2022-09-03T03:53:44.942Z,98480.31
2022-09-03T03:56:13.982Z,98467.28
2022-09-03T03:58:43.937Z,98444.44
2022-09-03T04:01:19.493Z,98426.22
2022-09-03T04:03:46.315Z,98424.75
2022-09-03T04:06:14.935Z,98425.38
2022-09-03T04:08:42.946Z,98424.91
2022-09-03T04:11:13.970Z,98432.09
2022-09-03T04:13:42.379Z,98436.34
2022-09-03T04:16:11.271Z,98426.88
2022-09-03T04:18:39.065Z,98431.78
2022-09-03T04:21:08.566Z,98425.50
2022-09-03T04:23:36.896Z,98400.03
2022-09-03T04:26:03.788Z,98413.41
2022-09-03T04:28:32.327Z,98401.19
2022-09-03T04:31:07.848Z,98391.63
2022-09-03T04:33:36.831Z,98374.94
2022-09-03T04:36:12.442Z,98378.81
2022-09-03T04:38:41.590Z,98376.84
2022-09-03T04:41:10.829Z,98364.97
2022-09-03T04:43:37.800Z,98352.41
2022-09-03T04:46:06.613Z,98363.94
2022-09-03T04:48:37.812Z,98354.38
2022-09-03T04:51:08.434Z,98359.03
2022-09-03T04:53:40.490Z,98373.63
2022-09-03T04:56:21.283Z,98363.25
2022-09-03T04:58:49.288Z,98363.66
2022-09-03T05:01:20.173Z,98366.34
2022-09-03T05:03:47.284Z,98368.13
2022-09-03T05:06:17.065Z,98374.25
2022-09-03T05:08:44.538Z,98392.16
2022-09-03T05:11:10.937Z,98397.03
2022-09-03T05:13:37.341Z,98394.09
2022-09-03T05:16:06.440Z,98405.06
2022-09-03T05:18:33.670Z,98406.22
2022-09-03T05:21:05.547Z,98399.63
2022-09-03T05:23:37.646Z,98416.06
2022-09-03T05:26:10.991Z,98428.41
2022-09-03T05:28:39.885Z,98416.31
2022-09-03T05:31:17.057Z,98430.38
2022-09-03T05:33:55.188Z,98431.91
2022-09-03T05:36:24.522Z,98453.13
2022-09-03T05:38:54.241Z,98472.84
2022-09-03T05:41:21.947Z,98486.06
2022-09-03T05:43:56.191Z,98486.50
2022-09-03T05:46:30.124Z,98498.09
2022-09-03T05:48:56.530Z,98501.84
2022-09-03T05:51:22.934Z,98505.84
2022-09-03T05:53:49.653Z,98499.97
2022-09-03T05:56:18.741Z,98505.63
2022-09-03T05:58:47.707Z,98536.97
2022-09-03T06:01:19.943Z,98553.16
2022-09-03T06:03:48.439Z,98567.41
2022-09-03T06:06:16.246Z,98571.75
2022-09-03T06:08:44.891Z,98582.31
2022-09-03T06:11:12.583Z,98607.59
2022-09-03T06:13:39.028Z,98613.41
2022-09-03T06:16:07.658Z,98629.72
2022-09-03T06:18:34.246Z,98644.03
2022-09-03T06:21:03.745Z,98649.66
2022-09-03T06:23:31.884Z,98669.53
2022-09-03T06:26:06.548Z,98684.94
2022-09-03T06:28:34.931Z,98693.91
2022-09-03T06:31:02.414Z,98706.88
2022-09-03T06:33:33.198Z,98700.91
2022-09-03T06:36:03.900Z,98689.28
2022-09-03T06:38:35.954Z,98704.91
2022-09-03T06:41:23.898Z,98704.91
2022-09-03T06:43:52.308Z,98688.28
2022-09-03T06:46:21.693Z,98687.28
2022-09-03T06:48:51.772Z,98697.25
2022-09-03T06:51:20.718Z,98684.44
2022-09-03T06:53:49.728Z,98665.69
2022-09-03T06:56:19.060Z,98669.34
2022-09-03T06:58:47.350Z,98695.91
2022-09-03T07:01:19.778Z,98704.66
2022-09-03T07:03:48.606Z,98703.03
2022-09-03T07:06:17.652Z,98703.53
2022-09-03T07:08:45.032Z,98706.50
2022-09-03T07:11:14.145Z,98709.19
2022-09-03T07:13:43.145Z,98722.25
2022-09-03T07:16:12.924Z,98744.22
2022-09-03T07:18:40.160Z,98741.28
2022-09-03T07:21:09.102Z,98778.53
2022-09-03T07:23:37.891Z,98786.50
2022-09-03T07:26:13.463Z,98819.16
2022-09-03T07:28:41.864Z,98811.28
2022-09-03T07:31:12.304Z,98822.88
2022-09-03T07:33:39.359Z,98826.03
2022-09-03T07:36:14.453Z,98841.88
2022-09-03T07:38:42.203Z,98855.16
2022-09-03T07:41:09.591Z,98857.72
2022-09-03T07:43:43.039Z,98850.25
2022-09-03T07:46:22.805Z,98865.56
2022-09-03T07:48:54.391Z,98882.88
2022-09-03T07:51:24.054Z,98891.50
2022-09-03T07:56:18.155Z,98882.91
2022-09-03T07:58:44.790Z,98895.06
2022-09-03T08:01:17.306Z,98887.03
2022-09-03T08:03:46.493Z,98877.31
2022-09-03T08:06:15.022Z,98896.09
2022-09-03T08:08:42.170Z,98875.88
2022-09-03T08:11:10.966Z,98896.84
2022-09-03T08:14:02.677Z,98869.44
2022-09-03T08:16:31.469Z,98897.31
2022-09-03T08:18:58.621Z,98893.13
2022-09-03T08:21:26.717Z,98890.34
2022-09-03T08:23:56.800Z,98890.31
2022-09-03T08:26:23.215Z,98850.09
2022-09-03T08:28:52.874Z,98894.00
2022-09-03T08:31:22.697Z,98897.63
2022-09-03T08:33:51.971Z,98885.28
2022-09-03T08:36:23.673Z,98892.69
2022-09-03T08:38:53.056Z,98902.25
2022-09-03T08:41:37.612Z,98890.00
2022-09-03T08:44:07.205Z,98896.47
2022-09-03T08:46:39.754Z,98861.56
2022-09-03T08:49:10.743Z,98904.09
2022-09-03T08:51:40.365Z,98880.84
2022-09-03T08:54:11.283Z,98874.59
2022-09-03T08:56:41.917Z,98895.66
2022-09-03T08:59:10.015Z,98868.75
2022-09-03T09:01:49.972Z,98863.19
2022-09-03T09:04:35.662Z,98899.31
2022-09-03T09:07:17.059Z,98898.44
2022-09-03T09:10:12.244Z,98887.44
2022-09-03T09:12:51.586Z,98882.63
2022-09-03T09:18:07.435Z,98899.19
2022-09-03T09:20:53.232Z,98883.13
2022-09-03T09:23:32.115Z,98880.44
2022-09-03T09:26:05.074Z,98872.63
2022-09-03T09:28:35.746Z,98880.38
2022-09-03T09:31:04.621Z,98877.00
2022-09-03T09:33:32.302Z,98876.75
2022-09-03T09:36:06.366Z,98868.09
2022-09-03T09:38:39.030Z,98865.16
2022-09-03T09:41:29.568Z,98856.50
2022-09-03T09:44:02.217Z,98859.22
2022-09-03T09:46:38.046Z,98860.66
2022-09-03T09:49:22.474Z,98847.88
2022-09-03T09:51:49.475Z,98853.00
2022-09-03T09:54:21.803Z,98854.06
2022-09-03T09:57:03.768Z,98848.06
2022-09-03T09:59:31.071Z,98839.50
2022-09-03T10:02:24.088Z,98832.81
2022-09-03T10:04:51.046Z,98844.81
2022-09-03T10:07:33.013Z,98828.91
2022-09-03T10:10:04.435Z,98822.88
2022-09-03T10:12:44.654Z,98817.34
2022-09-03T10:15:20.779Z,98823.41
2022-09-03T10:18:28.342Z,98834.56
2022-09-03T10:21:04.941Z,98809.56
2022-09-03T10:23:40.200Z,98811.97
2022-09-03T10:26:10.384Z,98800.91
2022-09-03T10:28:41.430Z,98818.22
2022-09-03T10:31:38.881Z,98803.53
2022-09-03T10:34:37.383Z,98806.06
2022-09-03T10:37:28.684Z,98801.16
2022-09-03T10:40:18.042Z,98808.97
2022-09-03T10:43:13.547Z,98809.00
2022-09-03T10:46:07.039Z,98805.78
2022-09-03T10:48:45.484Z,98810.13
2022-09-03T10:51:27.482Z,98807.53
2022-09-03T10:54:06.132Z,98804.66
2022-09-03T10:56:49.380Z,98802.94
2022-09-03T10:59:39.477Z,98799.38
2022-09-03T11:02:31.191Z,98799.72
2022-09-03T11:05:17.910Z,98806.94
2022-09-03T11:07:57.094Z,98797.53
2022-09-03T11:10:31.252Z,98794.72
2022-09-03T11:12:57.811Z,98789.41
2022-09-03T11:15:34.051Z,98786.97
2022-09-03T11:18:22.735Z,98785.09
2022-09-03T11:20:52.370Z,98771.53
2022-09-03T11:23:20.636Z,98776.75
2022-09-03T11:25:51.543Z,98788.94
2022-09-03T11:28:49.107Z,98782.94
2022-09-03T11:31:31.588Z,98772.09
2022-09-03T11:34:08.833Z,98778.69
2022-09-03T11:36:38.117Z,98760.09
2022-09-03T11:39:26.948Z,98775.56
2022-09-03T11:42:06.688Z,98762.34
2022-09-03T11:44:51.055Z,98770.97
2022-09-03T11:47:37.904Z,98758.66
2022-09-03T11:50:08.895Z,98764.41
2022-09-03T11:52:40.586Z,98750.97
2022-09-03T11:55:08.536Z,98751.72
2022-09-03T11:57:43.726Z,98765.38
2022-09-03T12:00:18.083Z,98777.56
2022-09-03T12:02:48.125Z,98772.44
2022-09-03T12:05:42.574Z,98743.06
2022-09-03T12:08:28.342Z,98735.78
2022-09-03T12:11:24.669Z,98739.38
2022-09-03T12:14:04.291Z,98736.31
2022-09-03T12:16:49.724Z,98750.41
2022-09-03T12:19:42.294Z,98740.28
2022-09-03T12:22:17.046Z,98734.59
2022-09-03T12:24:44.462Z,98721.88
2022-09-03T12:27:17.302Z,98718.75
2022-09-03T12:30:03.149Z,98730.06
2022-09-03T12:32:33.230Z,98730.66
2022-09-03T12:35:14.278Z,98740.91
2022-09-03T12:40:31.805Z,98739.09
2022-09-03T12:46:10.119Z,98741.69
2022-09-03T12:48:39.452Z,98731.75
2022-09-03T12:53:53.598Z,98736.75
2022-09-03T12:56:20.869Z,98732.75
2022-09-03T12:58:56.812Z,98735.94
2022-09-03T13:01:33.963Z,98740.53
2022-09-03T13:04:10.850Z,98736.84
2022-09-03T13:06:49.954Z,98725.59
2022-09-03T13:09:22.023Z,98744.00
2022-09-03T13:11:49.175Z,98737.31
2022-09-03T13:14:17.614Z,98728.31
2022-09-03T13:16:43.973Z,98734.91
2022-09-03T13:19:40.635Z,98731.06
2022-09-03T13:22:25.639Z,98726.50
2022-09-03T13:25:21.289Z,98728.34
2022-09-03T13:28:18.056Z,98730.00
2022-09-03T13:30:52.281Z,98720.00
2022-09-03T13:33:26.552Z,98725.34
2022-09-03T13:36:16.967Z,98731.00
2022-09-03T13:38:51.129Z,98719.31
2022-09-03T13:41:38.734Z,98722.91
2022-09-03T13:44:37.042Z,98727.16
2022-09-03T13:47:29.749Z,98722.03
2022-09-03T13:50:22.497Z,98721.56
2022-09-03T13:53:08.336Z,98731.28
2022-09-03T13:55:44.155Z,98732.44
2022-09-03T13:58:28.947Z,98732.94
2022-09-03T14:00:58.320Z,98733.06
2022-09-03T14:03:49.291Z,98737.75
2022-09-03T14:06:45.097Z,98733.19
2022-09-03T14:09:49.324Z,98727.69
2022-09-03T14:12:28.938Z,98741.59
2022-09-03T14:15:01.846Z,98741.56
2022-09-03T14:18:10.780Z,98747.88
2022-09-03T14:21:07.133Z,98743.47
2022-09-03T14:23:47.599Z,98744.94
2022-09-03T14:26:35.894Z,98725.28
2022-09-03T14:29:16.370Z,98745.19
2022-09-03T14:32:01.589Z,98754.09
2022-09-03T14:34:52.721Z,98748.97
2022-09-03T14:37:38.002Z,98741.38
2022-09-03T14:40:35.741Z,98711.28
2022-09-03T14:43:19.293Z,98725.56
2022-09-03T14:45:45.802Z,98723.97
2022-09-03T14:48:43.691Z,98717.28
2022-09-03T14:51:19.698Z,98711.47
2022-09-03T14:54:24.424Z,98644.16
2022-09-03T14:57:12.746Z,98577.72
2022-09-03T15:00:19.740Z,98510.59
2022-09-03T15:03:11.090Z,98407.66
2022-09-03T15:06:03.723Z,98386.41
2022-09-03T15:08:45.465Z,98326.28
2022-09-03T15:11:19.204Z,98311.84
2022-09-03T15:13:51.608Z,98308.97
2022-09-03T15:16:43.458Z,98296.63
2022-09-03T15:19:39.909Z,98281.34
2022-09-03T15:22:30.306Z,98218.31
2022-09-03T15:25:17.193Z,98157.44
2022-09-03T15:28:11.731Z,98153.78
2022-09-03T15:31:22.110Z,98169.97
2022-09-03T15:34:03.520Z,98140.56
2022-09-03T15:36:49.632Z,98137.69
2022-09-03T15:39:22.208Z,98163.44
2022-09-03T15:41:57.452Z,98177.66
2022-09-03T15:44:26.546Z,98158.69
2022-09-03T15:47:05.190Z,98172.72
2022-09-03T15:49:59.310Z,98173.13
2022-09-03T15:52:37.819Z,98192.06
2022-09-03T15:55:13.645Z,98214.28
2022-09-03T15:58:11.050Z,98204.84
2022-09-03T16:00:57.140Z,98201.72
2022-09-03T16:03:46.772Z,98194.53
2022-09-03T16:06:37.494Z,98203.78
2022-09-03T16:10:22.619Z,98205.66
2022-09-03T16:13:26.404Z,98208.91
2022-09-03T16:16:03.862Z,98199.81
2022-09-03T16:18:53.914Z,98185.88
2022-09-03T16:21:31.165Z,98185.22
2022-09-03T16:24:02.250Z,98155.16
2022-09-03T16:26:44.140Z,98117.66
2022-09-03T16:29:16.020Z,98095.63
2022-09-03T16:31:51.388Z,98073.38
2022-09-03T16:34:36.688Z,98061.94
2022-09-03T16:37:20.292Z,98025.91
2022-09-03T16:40:24.615Z,98001.00
2022-09-03T16:43:23.512Z,97992.47
2022-09-03T16:46:10.709Z,97957.28
2022-09-03T16:48:57.659Z,97953.38
2022-09-03T16:51:33.021Z,97975.16
2022-09-03T16:54:44.098Z,97999.03
2022-09-03T16:58:03.270Z,98015.06
2022-09-03T17:00:50.247Z,98037.72
2022-09-03T17:03:59.197Z,98031.34
2022-09-03T17:06:30.719Z,98008.09
2022-09-03T17:09:18.506Z,98005.66
2022-09-03T17:12:13.864Z,97976.44
2022-09-03T17:14:56.424Z,97951.34
2022-09-03T17:17:52.258Z,97955.88
2022-09-03T17:20:30.603Z,97958.34
2022-09-03T17:23:21.969Z,97974.59
2022-09-03T17:26:16.679Z,97969.25
2022-09-03T17:28:49.323Z,97965.34
2022-09-03T17:31:27.905Z,97965.16
2022-09-03T17:33:58.113Z,97976.03
2022-09-03T17:36:27.209Z,97975.66
2022-09-03T17:39:47.316Z,97981.00
2022-09-03T17:42:22.484Z,97987.13
2022-09-03T17:45:07.229Z,97997.41
2022-09-03T17:47:55.503Z,97995.78
2022-09-03T17:50:25.342Z,98007.69
2022-09-03T17:53:00.816Z,97995.34
2022-09-03T17:55:37.917Z,97999.91
2022-09-03T17:58:10.095Z,97987.56
2022-09-03T18:00:58.343Z,97986.72
2022-09-03T18:03:41.240Z,97980.34
2022-09-03T18:06:23.682Z,97949.34
2022-09-03T18:08:58.908Z,97935.34
2022-09-03T18:11:47.554Z,97913.53
2022-09-03T18:14:22.791Z,97918.06
2022-09-03T18:16:54.194Z,97926.28
2022-09-03T18:20:04.562Z,97923.41
2022-09-03T18:23:19.876Z,97957.53
2022-09-03T18:26:09.592Z,98003.59
2022-09-03T18:29:12.456Z,98041.81
2022-09-03T18:31:57.431Z,98072.28
2022-09-03T18:34:49.987Z,98071.22
2022-09-03T18:37:41.607Z,98043.47
2022-09-03T18:40:29.091Z,98050.66
2022-09-03T18:43:28.599Z,98061.19
2022-09-03T18:49:38.898Z,97993.31
2022-09-03T18:52:49.807Z,97961.66
2022-09-03T18:55:59.268Z,97948.09
2022-09-03T18:58:56.746Z,97924.66
2022-09-03T19:01:55.443Z,97918.28
2022-09-03T19:05:07.359Z,97913.56
2022-09-03T19:08:18.545Z,97918.88
2022-09-03T19:11:18.156Z,97929.00
2022-09-03T19:14:04.674Z,97923.63
2022-09-03T19:17:32.739Z,97931.63
2022-09-03T19:20:47.597Z,97959.19
2022-09-03T19:23:32.524Z,97944.19
2022-09-03T19:26:26.942Z,97952.41
2022-09-03T19:29:20.816Z,97946.22
2022-09-03T19:32:13.636Z,97948.09
2022-09-03T19:35:07.746Z,97948.09
2022-09-03T19:37:55.672Z,97942.34
2022-09-03T19:41:02.718Z,97944.19
2022-09-03T19:44:04.580Z,97941.91
2022-09-03T19:46:58.649Z,97942.13
2022-09-03T19:50:21.458Z,97961.44
2022-09-03T19:53:20.720Z,97963.91
2022-09-03T19:56:11.575Z,97974.38
2022-09-03T19:59:01.448Z,97976.44
2022-09-03T20:01:52.702Z,97994.09
2022-09-03T20:04:39.882Z,97991.66
2022-09-03T20:07:28.528Z,97998.03
2022-09-03T20:10:21.067Z,98001.50
2022-09-03T20:12:51.850Z,98024.13
2022-09-03T20:15:23.770Z,98038.47
2022-09-03T20:18:02.540Z,98029.16
2022-09-03T20:20:44.714Z,98045.03
2022-09-03T20:23:21.506Z,98059.84
2022-09-03T20:26:10.590Z,98068.31
2022-09-03T20:28:58.696Z,98047.13
2022-09-03T20:31:59.068Z,98018.47
2022-09-03T20:34:53.685Z,97988.69
2022-09-03T20:37:41.403Z,97980.84
2022-09-03T20:40:28.980Z,97974.47
2022-09-03T20:43:19.881Z,97977.38
2022-09-03T20:46:29.100Z,97988.69
2022-09-03T20:49:03.555Z,97987.84
2022-09-03T20:51:41.111Z,97987.44
2022-09-03T20:54:11.146Z,98003.13
2022-09-03T20:56:55.967Z,98000.22
2022-09-03T20:59:41.991Z,98008.47
2022-09-03T21:02:28.983Z,98003.47
2022-09-03T21:05:13.835Z,97999.78
2022-09-03T21:08:22.403Z,97999.34
2022-09-03T21:10:58.100Z,97992.34
2022-09-03T21:13:47.113Z,97990.53
2022-09-03T21:16:28.925Z,97999.75
2022-09-03T21:19:34.469Z,98001.84
2022-09-03T21:22:19.248Z,98016.63
2022-09-03T21:24:53.017Z,98009.44
2022-09-03T21:27:24.213Z,98017.03
2022-09-03T21:30:02.282Z,98016.22
2022-09-03T21:32:42.791Z,98025.25
2022-09-03T21:35:15.747Z,98017.50
2022-09-03T21:37:51.023Z,98024.66
2022-09-03T21:40:24.390Z,98017.88
2022-09-03T21:43:00.443Z,98022.34
2022-09-03T21:45:46.938Z,98010.41
2022-09-03T21:48:22.370Z,98007.50
2022-09-03T21:50:56.244Z,98011.03
2022-09-03T21:53:46.256Z,98011.69
2022-09-03T21:56:42.375Z,98026.06
2022-09-03T21:59:38.910Z,98028.09
2022-09-03T22:02:30.256Z,98029.00
2022-09-03T22:04:57.380Z,98038.03
2022-09-03T22:07:53.371Z,98042.09
2022-09-03T22:10:21.057Z,98040.06
2022-09-03T22:13:15.275Z,98047.09
2022-09-03T22:15:42.932Z,98047.00
2022-09-03T22:18:28.830Z,98040.81
2022-09-03T22:21:13.099Z,98022.72
2022-09-03T22:24:18.969Z,98026.56
2022-09-03T22:27:22.376Z,98018.13
2022-09-03T22:30:04.934Z,98008.72
2022-09-03T22:32:56.034Z,98007.50
2022-09-03T22:35:38.116Z,98002.91
2022-09-03T22:38:33.591Z,98011.56
2022-09-03T22:41:10.988Z,98015.19
2022-09-03T22:43:43.733Z,98008.13
2022-09-03T22:46:16.469Z,97996.53
2022-09-03T22:49:10.580Z,97997.56
2022-09-03T22:51:54.454Z,97998.13
2022-09-03T22:54:43.653Z,97982.53
2022-09-03T22:57:15.794Z,97984.31
2022-09-03T22:59:51.994Z,97986.78
2022-09-03T23:02:26.002Z,97981.78
2022-09-03T23:05:30.264Z,97984.94
2022-09-03T23:08:06.686Z,98005.13
2022-09-03T23:10:55.878Z,97997.16
2022-09-03T23:13:28.944Z,98005.66
2022-09-03T23:16:03.111Z,98002.38
2022-09-03T23:18:32.615Z,97993.63
2022-09-03T23:21:07.795Z,97993.50
2022-09-03T23:23:44.074Z,97991.22
2022-09-03T23:26:35.095Z,97992.28
2022-09-03T23:29:16.858Z,98006.25
2022-09-03T23:31:43.391Z,97998.44
2022-09-03T23:34:11.513Z,98009.63
2022-09-03T23:37:29.604Z,98009.56
2022-09-03T23:40:08.886Z,98014.69
2022-09-03T23:43:06.872Z,98022.88
2022-09-03T23:45:51.101Z,98021.03
2022-09-03T23:48:44.980Z,98030.47
2022-09-03T23:51:24.702Z,98025.69
2022-09-03T23:54:19.845Z,98033.53
2022-09-03T23:57:13.817Z,98039.00
